GIA633 WAMM-WARR
Flight info
| Callsign | GIA633 |
|---|---|
| Flight time | N/A |
| Altitude | 36000 |
| Route | LUANG W32 SUSIL W32N KOLTA |
| Aircraft | B38M/M-SDE1FGHILORVWXY/HB1 |
Departure
| Time | 2026-05-05 01:39 |
|---|---|
| Airport | Sam Ratulangi International Airport (WAMM) |
Arrival
| Time | N/A |
|---|---|
| Airport | Juanda International Airport (WARR) |
| Time | Latitude | Longitude | Altitude | Speed | Heading |
|---|---|---|---|---|---|
| 2026-05-05 01:27 | 1.54193 | 124.92343 | 339 ft | 0 kts | 272° |
| 2026-05-05 01:32 | 1.54193 | 124.92366 | 335 ft | 4 kts | 271° |
| 2026-05-05 01:32 | 1.54192 | 124.92390 | 337 ft | 4 kts | 265° |
| 2026-05-05 01:32 | 1.54201 | 124.92410 | 338 ft | 4 kts | 206° |
| 2026-05-05 01:33 | 1.54224 | 124.92415 | 338 ft | 2 kts | 181° |
| 2026-05-05 01:33 | 1.54230 | 124.92415 | 338 ft | 0 kts | 181° |
| 2026-05-05 01:36 | 1.54224 | 124.92415 | 338 ft | 2 kts | 181° |
| 2026-05-05 01:36 | 1.54206 | 124.92414 | 334 ft | 3 kts | 181° |
| 2026-05-05 01:36 | 1.54176 | 124.92413 | 335 ft | 5 kts | 181° |
| 2026-05-05 01:36 | 1.54128 | 124.92412 | 337 ft | 9 kts | 181° |
| 2026-05-05 01:37 | 1.54055 | 124.92410 | 339 ft | 12 kts | 181° |
| 2026-05-05 01:37 | 1.53972 | 124.92418 | 336 ft | 12 kts | 153° |
| 2026-05-05 01:37 | 1.53889 | 124.92435 | 336 ft | 13 kts | 187° |
| 2026-05-05 01:37 | 1.53797 | 124.92429 | 337 ft | 14 kts | 168° |
| 2026-05-05 01:38 | 1.53745 | 124.92470 | 339 ft | 9 kts | 103° |
| 2026-05-05 01:38 | 1.53744 | 124.92537 | 337 ft | 10 kts | 85° |
| 2026-05-05 01:38 | 1.53785 | 124.92589 | 336 ft | 10 kts | 14° |
| 2026-05-05 01:38 | 1.53851 | 124.92595 | 340 ft | 14 kts | 3° |
| 2026-05-05 01:39 | 1.54221 | 124.92613 | 338 ft | 90 kts | 1° |
| 2026-05-05 01:39 | 1.55053 | 124.92634 | 340 ft | 147 kts | 2° |
| 2026-05-05 01:39 | 1.56223 | 124.92665 | 497 ft | 182 kts | 3° |
| 2026-05-05 01:39 | 1.57556 | 124.92725 | 1059 ft | 197 kts | 355° |
| 2026-05-05 01:40 | 1.58900 | 124.92411 | 1805 ft | 200 kts | 340° |
| 2026-05-05 01:40 | 1.60240 | 124.91939 | 2491 ft | 210 kts | 342° |
| 2026-05-05 01:40 | 1.61686 | 124.91523 | 3136 ft | 224 kts | 345° |
| 2026-05-05 01:40 | 1.63287 | 124.91125 | 3649 ft | 246 kts | 346° |
| 2026-05-05 01:41 | 1.64953 | 124.90726 | 4624 ft | 247 kts | 346° |
| 2026-05-05 01:41 | 1.66571 | 124.90193 | 5444 ft | 254 kts | 326° |
| 2026-05-05 01:41 | 1.67691 | 124.88880 | 6366 ft | 255 kts | 292° |
| 2026-05-05 01:41 | 1.67970 | 124.87093 | 6929 ft | 271 kts | 264° |
| 2026-05-05 01:42 | 1.67361 | 124.85274 | 7516 ft | 284 kts | 234° |
| 2026-05-05 01:42 | 1.65889 | 124.84004 | 8465 ft | 283 kts | 208° |
| 2026-05-05 01:42 | 1.64155 | 124.83021 | 9246 ft | 290 kts | 212° |
| 2026-05-05 01:42 | 1.62445 | 124.81952 | 10108 ft | 293 kts | 212° |
| 2026-05-05 01:43 | 1.60682 | 124.80842 | 10617 ft | 309 kts | 213° |
| 2026-05-05 01:43 | 1.58813 | 124.79635 | 10946 ft | 329 kts | 213° |
| 2026-05-05 01:43 | 1.56835 | 124.78347 | 11250 ft | 349 kts | 213° |
| 2026-05-05 01:43 | 1.54757 | 124.76990 | 11629 ft | 363 kts | 213° |
| 2026-05-05 01:44 | 1.52620 | 124.75612 | 12253 ft | 367 kts | 212° |
| 2026-05-05 01:44 | 1.50450 | 124.74236 | 12910 ft | 372 kts | 212° |
| 2026-05-05 01:44 | 1.48255 | 124.72851 | 13566 ft | 375 kts | 212° |
| 2026-05-05 01:44 | 1.46033 | 124.71457 | 14156 ft | 378 kts | 212° |
| 2026-05-05 01:45 | 1.43793 | 124.70055 | 14697 ft | 382 kts | 211° |